sensor_id;sensor_type;location;lat;lon;timestamp;temperature;humidity
69387;SHT31;56575;48.942;8.404;2022-10-31T00:00:58;13.71;82.38
69387;SHT31;56575;48.942;8.404;2022-10-31T00:03:24;13.69;82.14
69387;SHT31;56575;48.942;8.404;2022-10-31T00:05:51;13.67;82.35
69387;SHT31;56575;48.942;8.404;2022-10-31T00:08:17;13.65;82.52
69387;SHT31;56575;48.942;8.404;2022-10-31T00:10:44;13.62;82.23
69387;SHT31;56575;48.942;8.404;2022-10-31T00:13:10;13.61;82.25
69387;SHT31;56575;48.942;8.404;2022-10-31T00:15:37;13.58;82.23
69387;SHT31;56575;48.942;8.404;2022-10-31T00:18:03;13.57;82.23
69387;SHT31;56575;48.942;8.404;2022-10-31T00:20:29;13.55;82.18
69387;SHT31;56575;48.942;8.404;2022-10-31T00:23:01;13.55;82.10
69387;SHT31;56575;48.942;8.404;2022-10-31T00:25:28;13.50;82.16
69387;SHT31;56575;48.942;8.404;2022-10-31T00:27:54;13.48;82.13
69387;SHT31;56575;48.942;8.404;2022-10-31T00:30:20;13.44;82.73
69387;SHT31;56575;48.942;8.404;2022-10-31T00:32:45;13.37;82.77
69387;SHT31;56575;48.942;8.404;2022-10-31T00:35:11;13.31;82.59
69387;SHT31;56575;48.942;8.404;2022-10-31T00:37:36;13.28;82.68
69387;SHT31;56575;48.942;8.404;2022-10-31T00:40:01;13.27;82.81
69387;SHT31;56575;48.942;8.404;2022-10-31T00:42:27;13.27;82.75
69387;SHT31;56575;48.942;8.404;2022-10-31T00:44:52;13.24;83.21
69387;SHT31;56575;48.942;8.404;2022-10-31T00:47:17;13.24;83.10
69387;SHT31;56575;48.942;8.404;2022-10-31T00:49:43;13.24;82.71
69387;SHT31;56575;48.942;8.404;2022-10-31T00:52:08;13.23;82.73
69387;SHT31;56575;48.942;8.404;2022-10-31T00:54:34;13.23;83.02
69387;SHT31;56575;48.942;8.404;2022-10-31T00:56:59;13.19;82.90
69387;SHT31;56575;48.942;8.404;2022-10-31T00:59:24;13.19;83.18
69387;SHT31;56575;48.942;8.404;2022-10-31T01:01:50;13.20;83.06
69387;SHT31;56575;48.942;8.404;2022-10-31T01:04:15;13.16;83.09
69387;SHT31;56575;48.942;8.404;2022-10-31T01:06:40;13.23;83.36
69387;SHT31;56575;48.942;8.404;2022-10-31T01:09:06;13.16;83.18
69387;SHT31;56575;48.942;8.404;2022-10-31T01:11:31;13.16;83.36
69387;SHT31;56575;48.942;8.404;2022-10-31T01:13:56;13.16;83.61
69387;SHT31;56575;48.942;8.404;2022-10-31T01:16:24;13.12;83.38
69387;SHT31;56575;48.942;8.404;2022-10-31T01:18:51;13.07;83.55
69387;SHT31;56575;48.942;8.404;2022-10-31T01:21:22;13.04;83.84
69387;SHT31;56575;48.942;8.404;2022-10-31T01:23:48;13.03;83.72
69387;SHT31;56575;48.942;8.404;2022-10-31T01:26:16;13.03;83.85
69387;SHT31;56575;48.942;8.404;2022-10-31T01:31:18;12.99;83.83
69387;SHT31;56575;48.942;8.404;2022-10-31T01:33:45;13.00;84.06
69387;SHT31;56575;48.942;8.404;2022-10-31T01:36:22;12.96;84.11
69387;SHT31;56575;48.942;8.404;2022-10-31T01:38:49;12.92;84.00
69387;SHT31;56575;48.942;8.404;2022-10-31T01:41:20;12.93;84.10
69387;SHT31;56575;48.942;8.404;2022-10-31T01:46:18;12.86;84.57
69387;SHT31;56575;48.942;8.404;2022-10-31T01:48:44;12.85;84.50
69387;SHT31;56575;48.942;8.404;2022-10-31T01:51:12;12.84;84.77
69387;SHT31;56575;48.942;8.404;2022-10-31T01:53:39;12.81;84.96
69387;SHT31;56575;48.942;8.404;2022-10-31T01:56:05;12.76;84.78
69387;SHT31;56575;48.942;8.404;2022-10-31T01:58:31;12.76;85.27
69387;SHT31;56575;48.942;8.404;2022-10-31T02:00:59;12.75;85.10
69387;SHT31;56575;48.942;8.404;2022-10-31T02:03:25;12.74;85.35
69387;SHT31;56575;48.942;8.404;2022-10-31T02:05:53;12.71;85.03
69387;SHT31;56575;48.942;8.404;2022-10-31T02:08:30;12.69;85.42
69387;SHT31;56575;48.942;8.404;2022-10-31T02:10:59;12.69;85.16
69387;SHT31;56575;48.942;8.404;2022-10-31T02:13:25;12.68;84.67
69387;SHT31;56575;48.942;8.404;2022-10-31T02:15:57;12.68;85.44
69387;SHT31;56575;48.942;8.404;2022-10-31T02:18:24;12.68;85.42
69387;SHT31;56575;48.942;8.404;2022-10-31T02:26:10;12.59;85.98
69387;SHT31;56575;48.942;8.404;2022-10-31T02:31:31;12.58;85.50
69387;SHT31;56575;48.942;8.404;2022-10-31T02:34:09;12.61;86.08
69387;SHT31;56575;48.942;8.404;2022-10-31T02:36:45;12.57;85.68
69387;SHT31;56575;48.942;8.404;2022-10-31T02:39:33;12.57;85.76
69387;SHT31;56575;48.942;8.404;2022-10-31T02:42:08;12.59;85.71
69387;SHT31;56575;48.942;8.404;2022-10-31T02:44:44;12.58;85.84
69387;SHT31;56575;48.942;8.404;2022-10-31T02:47:25;12.58;86.01
69387;SHT31;56575;48.942;8.404;2022-10-31T02:52:31;12.59;85.68
69387;SHT31;56575;48.942;8.404;2022-10-31T02:54:57;12.55;85.28
69387;SHT31;56575;48.942;8.404;2022-10-31T02:57:25;12.52;85.11
69387;SHT31;56575;48.942;8.404;2022-10-31T02:59:55;12.50;85.87
69387;SHT31;56575;48.942;8.404;2022-10-31T03:05:45;12.48;85.98
69387;SHT31;56575;48.942;8.404;2022-10-31T03:08:29;12.44;85.64
69387;SHT31;56575;48.942;8.404;2022-10-31T03:11:00;12.41;85.87
69387;SHT31;56575;48.942;8.404;2022-10-31T03:16:18;12.41;86.13
69387;SHT31;56575;48.942;8.404;2022-10-31T03:18:52;12.41;86.08
69387;SHT31;56575;48.942;8.404;2022-10-31T03:21:25;12.41;86.14
69387;SHT31;56575;48.942;8.404;2022-10-31T03:23:53;12.40;85.80
69387;SHT31;56575;48.942;8.404;2022-10-31T03:26:21;12.38;85.90
69387;SHT31;56575;48.942;8.404;2022-10-31T03:28:53;12.38;85.96
69387;SHT31;56575;48.942;8.404;2022-10-31T03:31:24;12.36;85.75
69387;SHT31;56575;48.942;8.404;2022-10-31T03:33:51;12.34;85.56
69387;SHT31;56575;48.942;8.404;2022-10-31T03:36:17;12.33;85.80
69387;SHT31;56575;48.942;8.404;2022-10-31T03:38:45;12.31;85.70
69387;SHT31;56575;48.942;8.404;2022-10-31T03:41:20;12.34;85.81
69387;SHT31;56575;48.942;8.404;2022-10-31T03:43:55;12.29;85.72
69387;SHT31;56575;48.942;8.404;2022-10-31T03:46:22;12.24;85.97
69387;SHT31;56575;48.942;8.404;2022-10-31T03:48:48;12.19;86.35
69387;SHT31;56575;48.942;8.404;2022-10-31T03:51:22;12.19;86.67
69387;SHT31;56575;48.942;8.404;2022-10-31T03:54:26;12.17;86.75
69387;SHT31;56575;48.942;8.404;2022-10-31T03:56:57;12.16;86.66
69387;SHT31;56575;48.942;8.404;2022-10-31T03:59:33;12.14;85.98
69387;SHT31;56575;48.942;8.404;2022-10-31T04:02:09;12.09;86.24
69387;SHT31;56575;48.942;8.404;2022-10-31T04:04:36;12.04;86.32
69387;SHT31;56575;48.942;8.404;2022-10-31T04:07:03;12.06;86.30
69387;SHT31;56575;48.942;8.404;2022-10-31T04:09:33;12.06;85.99
69387;SHT31;56575;48.942;8.404;2022-10-31T04:12:00;12.06;86.27
69387;SHT31;56575;48.942;8.404;2022-10-31T04:14:29;12.07;85.78
69387;SHT31;56575;48.942;8.404;2022-10-31T04:16:56;12.04;86.00
69387;SHT31;56575;48.942;8.404;2022-10-31T04:19:21;12.00;85.41
69387;SHT31;56575;48.942;8.404;2022-10-31T04:21:47;11.95;85.37
69387;SHT31;56575;48.942;8.404;2022-10-31T04:24:12;11.96;85.94
69387;SHT31;56575;48.942;8.404;2022-10-31T04:26:37;11.96;85.83
69387;SHT31;56575;48.942;8.404;2022-10-31T04:29:03;11.96;85.47
69387;SHT31;56575;48.942;8.404;2022-10-31T04:31:28;11.97;85.72
69387;SHT31;56575;48.942;8.404;2022-10-31T04:33:54;11.93;85.31
69387;SHT31;56575;48.942;8.404;2022-10-31T04:36:19;11.93;85.18
69387;SHT31;56575;48.942;8.404;2022-10-31T04:38:45;11.86;85.60
69387;SHT31;56575;48.942;8.404;2022-10-31T04:41:10;11.76;85.43
69387;SHT31;56575;48.942;8.404;2022-10-31T04:43:35;11.75;85.17
69387;SHT31;56575;48.942;8.404;2022-10-31T04:46:01;11.78;86.33
69387;SHT31;56575;48.942;8.404;2022-10-31T04:48:27;11.78;86.06
69387;SHT31;56575;48.942;8.404;2022-10-31T04:50:52;11.78;86.06
69387;SHT31;56575;48.942;8.404;2022-10-31T04:53:17;11.79;86.12
69387;SHT31;56575;48.942;8.404;2022-10-31T04:55:43;11.79;86.02
69387;SHT31;56575;48.942;8.404;2022-10-31T04:58:08;11.78;86.01
69387;SHT31;56575;48.942;8.404;2022-10-31T05:00:33;11.79;85.98
69387;SHT31;56575;48.942;8.404;2022-10-31T05:02:59;11.79;85.80
69387;SHT31;56575;48.942;8.404;2022-10-31T05:05:28;11.81;85.97
69387;SHT31;56575;48.942;8.404;2022-10-31T05:07:53;11.81;85.87
69387;SHT31;56575;48.942;8.404;2022-10-31T05:10:23;11.82;85.91
69387;SHT31;56575;48.942;8.404;2022-10-31T05:12:57;11.79;85.92
69387;SHT31;56575;48.942;8.404;2022-10-31T05:15:25;11.75;85.67
69387;SHT31;56575;48.942;8.404;2022-10-31T05:17:51;11.71;86.06
69387;SHT31;56575;48.942;8.404;2022-10-31T05:20:18;11.69;85.92
69387;SHT31;56575;48.942;8.404;2022-10-31T05:22:49;11.72;86.22
69387;SHT31;56575;48.942;8.404;2022-10-31T05:25:16;11.67;85.42
69387;SHT31;56575;48.942;8.404;2022-10-31T05:27:44;11.64;85.62
69387;SHT31;56575;48.942;8.404;2022-10-31T05:30:11;11.62;85.87
69387;SHT31;56575;48.942;8.404;2022-10-31T05:32:42;11.58;85.73
69387;SHT31;56575;48.942;8.404;2022-10-31T05:35:08;11.59;85.74
69387;SHT31;56575;48.942;8.404;2022-10-31T05:37:37;11.62;85.85
69387;SHT31;56575;48.942;8.404;2022-10-31T05:40:05;11.59;85.54
69387;SHT31;56575;48.942;8.404;2022-10-31T05:42:31;11.58;85.51
69387;SHT31;56575;48.942;8.404;2022-10-31T05:44:56;11.57;85.24
69387;SHT31;56575;48.942;8.404;2022-10-31T05:47:21;11.55;85.27
69387;SHT31;56575;48.942;8.404;2022-10-31T05:49:47;11.51;85.82
69387;SHT31;56575;48.942;8.404;2022-10-31T05:52:12;11.51;85.76
69387;SHT31;56575;48.942;8.404;2022-10-31T05:54:38;11.47;85.60
69387;SHT31;56575;48.942;8.404;2022-10-31T05:57:03;11.44;85.91
69387;SHT31;56575;48.942;8.404;2022-10-31T05:59:29;11.45;86.56
69387;SHT31;56575;48.942;8.404;2022-10-31T06:01:54;11.47;86.32
69387;SHT31;56575;48.942;8.404;2022-10-31T06:04:20;11.44;86.10
69387;SHT31;56575;48.942;8.404;2022-10-31T06:06:45;11.42;86.23
69387;SHT31;56575;48.942;8.404;2022-10-31T06:09:11;11.40;86.45
69387;SHT31;56575;48.942;8.404;2022-10-31T06:11:36;11.41;86.76
69387;SHT31;56575;48.942;8.404;2022-10-31T06:14:02;11.41;86.48
69387;SHT31;56575;48.942;8.404;2022-10-31T06:16:27;11.37;86.40
69387;SHT31;56575;48.942;8.404;2022-10-31T06:18:53;11.40;86.81
69387;SHT31;56575;48.942;8.404;2022-10-31T06:21:18;11.42;87.16
69387;SHT31;56575;48.942;8.404;2022-10-31T06:23:43;11.41;86.40
69387;SHT31;56575;48.942;8.404;2022-10-31T06:26:09;11.41;86.56
69387;SHT31;56575;48.942;8.404;2022-10-31T06:28:34;11.35;86.82
69387;SHT31;56575;48.942;8.404;2022-10-31T06:30:59;11.37;87.04
69387;SHT31;56575;48.942;8.404;2022-10-31T06:33:25;11.31;87.34
69387;SHT31;56575;48.942;8.404;2022-10-31T06:35:50;11.32;87.60
69387;SHT31;56575;48.942;8.404;2022-10-31T06:38:15;11.37;87.60
69387;SHT31;56575;48.942;8.404;2022-10-31T06:40:41;11.44;87.17
69387;SHT31;56575;48.942;8.404;2022-10-31T06:43:06;11.45;86.68
69387;SHT31;56575;48.942;8.404;2022-10-31T06:45:31;11.51;86.91
69387;SHT31;56575;48.942;8.404;2022-10-31T06:47:57;11.57;86.66
69387;SHT31;56575;48.942;8.404;2022-10-31T06:50:22;11.55;86.69
69387;SHT31;56575;48.942;8.404;2022-10-31T06:52:55;11.62;86.81
69387;SHT31;56575;48.942;8.404;2022-10-31T06:55:22;11.67;86.90
69387;SHT31;56575;48.942;8.404;2022-10-31T06:57:57;11.67;86.36
69387;SHT31;56575;48.942;8.404;2022-10-31T07:00:25;11.71;86.44
69387;SHT31;56575;48.942;8.404;2022-10-31T07:02:59;11.74;86.34
69387;SHT31;56575;48.942;8.404;2022-10-31T07:05:26;11.75;86.58
69387;SHT31;56575;48.942;8.404;2022-10-31T07:08:13;11.81;86.18
69387;SHT31;56575;48.942;8.404;2022-10-31T07:10:39;11.79;85.82
69387;SHT31;56575;48.942;8.404;2022-10-31T07:13:08;11.86;86.22
69387;SHT31;56575;48.942;8.404;2022-10-31T07:15:36;11.90;86.08
69387;SHT31;56575;48.942;8.404;2022-10-31T07:18:03;11.93;86.24
69387;SHT31;56575;48.942;8.404;2022-10-31T07:20:30;11.96;85.57
69387;SHT31;56575;48.942;8.404;2022-10-31T07:22:55;12.02;85.95
69387;SHT31;56575;48.942;8.404;2022-10-31T07:25:21;12.06;85.59
69387;SHT31;56575;48.942;8.404;2022-10-31T07:27:47;12.06;86.43
69387;SHT31;56575;48.942;8.404;2022-10-31T07:30:13;12.10;86.16
69387;SHT31;56575;48.942;8.404;2022-10-31T07:35:06;12.17;85.93
69387;SHT31;56575;48.942;8.404;2022-10-31T07:37:31;12.21;85.62
69387;SHT31;56575;48.942;8.404;2022-10-31T07:39:57;12.20;85.56
69387;SHT31;56575;48.942;8.404;2022-10-31T07:42:22;12.19;85.40
69387;SHT31;56575;48.942;8.404;2022-10-31T07:44:47;12.23;85.67
69387;SHT31;56575;48.942;8.404;2022-10-31T07:47:13;12.27;85.92
69387;SHT31;56575;48.942;8.404;2022-10-31T07:49:38;12.33;85.86
69387;SHT31;56575;48.942;8.404;2022-10-31T07:52:03;12.36;85.75
69387;SHT31;56575;48.942;8.404;2022-10-31T07:54:29;12.36;86.00
69387;SHT31;56575;48.942;8.404;2022-10-31T07:56:54;12.38;85.95
69387;SHT31;56575;48.942;8.404;2022-10-31T07:59:19;12.42;86.33
69387;SHT31;56575;48.942;8.404;2022-10-31T08:01:45;12.48;85.50
69387;SHT31;56575;48.942;8.404;2022-10-31T08:04:10;12.57;85.31
69387;SHT31;56575;48.942;8.404;2022-10-31T08:06:35;12.59;85.31
69387;SHT31;56575;48.942;8.404;2022-10-31T08:09:01;12.61;85.22
69387;SHT31;56575;48.942;8.404;2022-10-31T08:11:26;12.61;85.26
69387;SHT31;56575;48.942;8.404;2022-10-31T08:13:51;12.69;85.46
69387;SHT31;56575;48.942;8.404;2022-10-31T08:16:17;12.78;85.13
69387;SHT31;56575;48.942;8.404;2022-10-31T08:18:42;12.82;84.97
69387;SHT31;56575;48.942;8.404;2022-10-31T08:21:08;12.85;84.91
69387;SHT31;56575;48.942;8.404;2022-10-31T08:23:33;12.88;84.91
69387;SHT31;56575;48.942;8.404;2022-10-31T08:25:58;12.88;84.99
69387;SHT31;56575;48.942;8.404;2022-10-31T08:28:24;12.88;84.93
69387;SHT31;56575;48.942;8.404;2022-10-31T08:30:49;12.96;84.48
69387;SHT31;56575;48.942;8.404;2022-10-31T08:33:16;13.00;84.41
69387;SHT31;56575;48.942;8.404;2022-10-31T08:35:42;13.06;84.56
69387;SHT31;56575;48.942;8.404;2022-10-31T08:38:10;13.12;84.45
69387;SHT31;56575;48.942;8.404;2022-10-31T08:40:36;13.23;84.23
69387;SHT31;56575;48.942;8.404;2022-10-31T08:43:06;13.27;83.55
69387;SHT31;56575;48.942;8.404;2022-10-31T08:45:34;13.30;83.22
69387;SHT31;56575;48.942;8.404;2022-10-31T08:48:01;13.38;83.34
69387;SHT31;56575;48.942;8.404;2022-10-31T08:50:28;13.51;82.91
69387;SHT31;56575;48.942;8.404;2022-10-31T08:53:32;13.57;82.26
69387;SHT31;56575;48.942;8.404;2022-10-31T08:55:50;13.69;81.67
69387;SHT31;56575;48.942;8.404;2022-10-31T08:58:18;13.68;82.15
69387;SHT31;56575;48.942;8.404;2022-10-31T09:00:45;13.67;82.20
69387;SHT31;56575;48.942;8.404;2022-10-31T09:03:13;13.75;82.18
69387;SHT31;56575;48.942;8.404;2022-10-31T09:05:39;13.81;81.86
69387;SHT31;56575;48.942;8.404;2022-10-31T09:08:05;13.87;81.53
69387;SHT31;56575;48.942;8.404;2022-10-31T09:10:33;13.93;81.47
69387;SHT31;56575;48.942;8.404;2022-10-31T09:13:21;13.98;81.67
69387;SHT31;56575;48.942;8.404;2022-10-31T09:15:47;14.06;81.44
69387;SHT31;56575;48.942;8.404;2022-10-31T09:18:15;14.06;82.05
69387;SHT31;56575;48.942;8.404;2022-10-31T09:20:42;14.14;82.01
69387;SHT31;56575;48.942;8.404;2022-10-31T09:23:16;14.19;81.93
69387;SHT31;56575;48.942;8.404;2022-10-31T09:25:42;14.26;81.78
69387;SHT31;56575;48.942;8.404;2022-10-31T09:28:11;14.29;81.77
69387;SHT31;56575;48.942;8.404;2022-10-31T09:30:37;14.36;81.75
69387;SHT31;56575;48.942;8.404;2022-10-31T09:33:11;14.36;82.28
69387;SHT31;56575;48.942;8.404;2022-10-31T09:35:37;14.41;81.51
69387;SHT31;56575;48.942;8.404;2022-10-31T09:38:17;14.48;81.36
69387;SHT31;56575;48.942;8.404;2022-10-31T09:40:47;14.52;81.10
69387;SHT31;56575;48.942;8.404;2022-10-31T09:46:34;14.54;81.20
69387;SHT31;56575;48.942;8.404;2022-10-31T09:51:39;14.67;82.01
69387;SHT31;56575;48.942;8.404;2022-10-31T09:54:13;14.78;80.96
69387;SHT31;56575;48.942;8.404;2022-10-31T09:56:39;14.89;79.94
69387;SHT31;56575;48.942;8.404;2022-10-31T09:59:11;14.91;79.69
69387;SHT31;56575;48.942;8.404;2022-10-31T10:07:38;15.19;79.25
69387;SHT31;56575;48.942;8.404;2022-10-31T10:10:14;15.27;78.69
69387;SHT31;56575;48.942;8.404;2022-10-31T10:15:29;15.24;78.64
69387;SHT31;56575;48.942;8.404;2022-10-31T10:25:53;15.39;79.09
69387;SHT31;56575;48.942;8.404;2022-10-31T10:28:28;15.51;78.98
69387;SHT31;56575;48.942;8.404;2022-10-31T10:31:22;15.65;78.66
69387;SHT31;56575;48.942;8.404;2022-10-31T10:36:32;15.89;77.91
69387;SHT31;56575;48.942;8.404;2022-10-31T10:39:17;15.92;77.98
69387;SHT31;56575;48.942;8.404;2022-10-31T10:41:47;15.98;77.18
69387;SHT31;56575;48.942;8.404;2022-10-31T10:44:35;16.06;77.16
69387;SHT31;56575;48.942;8.404;2022-10-31T10:47:21;16.12;75.86
69387;SHT31;56575;48.942;8.404;2022-10-31T10:50:15;16.10;76.12
69387;SHT31;56575;48.942;8.404;2022-10-31T10:52:53;16.06;76.62
69387;SHT31;56575;48.942;8.404;2022-10-31T10:55:44;16.01;75.86
69387;SHT31;56575;48.942;8.404;2022-10-31T10:58:12;16.06;75.22
69387;SHT31;56575;48.942;8.404;2022-10-31T11:00:43;16.16;75.41
69387;SHT31;56575;48.942;8.404;2022-10-31T11:03:11;16.29;75.70
69387;SHT31;56575;48.942;8.404;2022-10-31T11:05:57;16.37;74.85
69387;SHT31;56575;48.942;8.404;2022-10-31T11:08:28;16.39;74.18
69387;SHT31;56575;48.942;8.404;2022-10-31T11:13:28;16.51;74.28
69387;SHT31;56575;48.942;8.404;2022-10-31T11:18:25;16.74;73.92
69387;SHT31;56575;48.942;8.404;2022-10-31T11:20:54;16.76;73.38
69387;SHT31;56575;48.942;8.404;2022-10-31T11:23:22;16.82;73.35
69387;SHT31;56575;48.942;8.404;2022-10-31T11:25:55;16.92;72.31
69387;SHT31;56575;48.942;8.404;2022-10-31T11:28:21;16.99;73.41
69387;SHT31;56575;48.942;8.404;2022-10-31T11:30:57;17.13;73.14
69387;SHT31;56575;48.942;8.404;2022-10-31T11:35:52;17.18;73.60
69387;SHT31;56575;48.942;8.404;2022-10-31T11:38:20;17.19;72.42
69387;SHT31;56575;48.942;8.404;2022-10-31T11:41:26;17.19;72.15
69387;SHT31;56575;48.942;8.404;2022-10-31T11:43:56;17.13;71.96
69387;SHT31;56575;48.942;8.404;2022-10-31T11:46:30;17.13;72.46
69387;SHT31;56575;48.942;8.404;2022-10-31T11:48:57;17.08;73.13
69387;SHT31;56575;48.942;8.404;2022-10-31T11:51:26;17.05;73.31
69387;SHT31;56575;48.942;8.404;2022-10-31T11:53:55;17.03;73.33
69387;SHT31;56575;48.942;8.404;2022-10-31T11:56:21;17.03;73.76
69387;SHT31;56575;48.942;8.404;2022-10-31T11:58:58;16.95;74.37
69387;SHT31;56575;48.942;8.404;2022-10-31T12:01:27;16.95;74.38
69387;SHT31;56575;48.942;8.404;2022-10-31T12:04:09;17.02;74.87
69387;SHT31;56575;48.942;8.404;2022-10-31T12:06:36;17.05;75.18
69387;SHT31;56575;48.942;8.404;2022-10-31T12:09:20;16.96;76.17
69387;SHT31;56575;48.942;8.404;2022-10-31T12:17:45;17.16;75.40
69387;SHT31;56575;48.942;8.404;2022-10-31T12:26:09;16.99;75.05
69387;SHT31;56575;48.942;8.404;2022-10-31T12:28:59;17.01;75.35
69387;SHT31;56575;48.942;8.404;2022-10-31T12:38:01;16.89;76.11
69387;SHT31;56575;48.942;8.404;2022-10-31T12:40:46;16.82;76.13
69387;SHT31;56575;48.942;8.404;2022-10-31T12:43:39;16.78;76.25
69387;SHT31;56575;48.942;8.404;2022-10-31T12:46:13;16.79;77.03
69387;SHT31;56575;48.942;8.404;2022-10-31T12:49:12;16.82;77.53
69387;SHT31;56575;48.942;8.404;2022-10-31T12:54:55;17.64;74.27
69387;SHT31;56575;48.942;8.404;2022-10-31T13:00:43;20.48;64.32
69387;SHT31;56575;48.942;8.404;2022-10-31T13:05:53;22.18;58.24
69387;SHT31;56575;48.942;8.404;2022-10-31T13:08:28;22.06;58.41
69387;SHT31;56575;48.942;8.404;2022-10-31T13:13:47;20.96;61.88
69387;SHT31;56575;48.942;8.404;2022-10-31T13:16:22;20.70;64.16
69387;SHT31;56575;48.942;8.404;2022-10-31T13:18:57;20.78;63.32
69387;SHT31;56575;48.942;8.404;2022-10-31T13:21:27;20.65;63.12
69387;SHT31;56575;48.942;8.404;2022-10-31T13:23:58;21.02;63.09
69387;SHT31;56575;48.942;8.404;2022-10-31T13:26:45;21.50;63.12
69387;SHT31;56575;48.942;8.404;2022-10-31T13:29:33;21.60;62.41
69387;SHT31;56575;48.942;8.404;2022-10-31T13:32:03;22.01;59.36
69387;SHT31;56575;48.942;8.404;2022-10-31T13:34:53;22.87;57.76
69387;SHT31;56575;48.942;8.404;2022-10-31T13:37:30;23.38;55.46
69387;SHT31;56575;48.942;8.404;2022-10-31T13:40:32;22.81;55.07
69387;SHT31;56575;48.942;8.404;2022-10-31T13:45:27;22.63;55.87
69387;SHT31;56575;48.942;8.404;2022-10-31T13:50:40;22.86;55.01
69387;SHT31;56575;48.942;8.404;2022-10-31T13:55:48;21.94;58.02
69387;SHT31;56575;48.942;8.404;2022-10-31T13:58:42;20.99;59.68
69387;SHT31;56575;48.942;8.404;2022-10-31T14:01:20;20.43;62.57
69387;SHT31;56575;48.942;8.404;2022-10-31T14:04:02;20.11;64.74
69387;SHT31;56575;48.942;8.404;2022-10-31T14:07:05;19.81;64.46
69387;SHT31;56575;48.942;8.404;2022-10-31T14:09:34;19.65;65.64
69387;SHT31;56575;48.942;8.404;2022-10-31T14:12:07;19.40;65.87
69387;SHT31;56575;48.942;8.404;2022-10-31T14:14:40;19.08;67.56
69387;SHT31;56575;48.942;8.404;2022-10-31T14:17:17;18.91;68.77
69387;SHT31;56575;48.942;8.404;2022-10-31T14:19:43;18.76;69.54
69387;SHT31;56575;48.942;8.404;2022-10-31T14:22:21;18.74;69.98
69387;SHT31;56575;48.942;8.404;2022-10-31T14:24:47;19.12;66.84
69387;SHT31;56575;48.942;8.404;2022-10-31T14:29:49;19.57;66.18
69387;SHT31;56575;48.942;8.404;2022-10-31T14:32:22;19.85;65.78
69387;SHT31;56575;48.942;8.404;2022-10-31T14:40:15;19.53;66.88
69387;SHT31;56575;48.942;8.404;2022-10-31T14:42:55;19.34;68.03
69387;SHT31;56575;48.942;8.404;2022-10-31T14:50:57;18.72;70.00
69387;SHT31;56575;48.942;8.404;2022-10-31T14:53:35;18.58;71.23
69387;SHT31;56575;48.942;8.404;2022-10-31T14:56:02;18.41;71.67
69387;SHT31;56575;48.942;8.404;2022-10-31T14:58:39;18.26;72.11
69387;SHT31;56575;48.942;8.404;2022-10-31T15:01:06;18.16;72.84
69387;SHT31;56575;48.942;8.404;2022-10-31T15:03:35;18.05;73.28
69387;SHT31;56575;48.942;8.404;2022-10-31T15:06:12;17.93;73.46
69387;SHT31;56575;48.942;8.404;2022-10-31T15:08:53;17.86;72.90
69387;SHT31;56575;48.942;8.404;2022-10-31T15:11:37;17.78;74.39
69387;SHT31;56575;48.942;8.404;2022-10-31T15:14:21;17.67;74.07
69387;SHT31;56575;48.942;8.404;2022-10-31T15:16:46;17.58;74.56
69387;SHT31;56575;48.942;8.404;2022-10-31T15:19:16;17.48;74.55
69387;SHT31;56575;48.942;8.404;2022-10-31T15:21:44;17.47;75.31
69387;SHT31;56575;48.942;8.404;2022-10-31T15:24:12;17.44;75.63
69387;SHT31;56575;48.942;8.404;2022-10-31T15:26:53;17.36;75.40
69387;SHT31;56575;48.942;8.404;2022-10-31T15:29:21;17.31;75.64
69387;SHT31;56575;48.942;8.404;2022-10-31T15:31:59;17.19;76.47
69387;SHT31;56575;48.942;8.404;2022-10-31T15:34:31;17.15;76.26
69387;SHT31;56575;48.942;8.404;2022-10-31T15:36:58;17.10;77.10
69387;SHT31;56575;48.942;8.404;2022-10-31T15:39:23;17.08;76.97
69387;SHT31;56575;48.942;8.404;2022-10-31T15:41:52;17.05;77.58
69387;SHT31;56575;48.942;8.404;2022-10-31T15:44:39;16.98;77.68
69387;SHT31;56575;48.942;8.404;2022-10-31T15:47:26;16.92;77.88
69387;SHT31;56575;48.942;8.404;2022-10-31T15:49:56;16.85;78.01
69387;SHT31;56575;48.942;8.404;2022-10-31T15:52:39;16.84;78.28
69387;SHT31;56575;48.942;8.404;2022-10-31T15:57:39;16.76;78.79
69387;SHT31;56575;48.942;8.404;2022-10-31T16:00:06;16.71;79.09
69387;SHT31;56575;48.942;8.404;2022-10-31T16:02:32;16.68;79.10
69387;SHT31;56575;48.942;8.404;2022-10-31T16:05:00;16.64;79.36
69387;SHT31;56575;48.942;8.404;2022-10-31T16:07:26;16.57;79.98
69387;SHT31;56575;48.942;8.404;2022-10-31T16:09:54;16.54;80.05
69387;SHT31;56575;48.942;8.404;2022-10-31T16:12:21;16.48;80.01
69387;SHT31;56575;48.942;8.404;2022-10-31T16:14:47;16.46;80.32
69387;SHT31;56575;48.942;8.404;2022-10-31T16:17:14;16.47;80.55
69387;SHT31;56575;48.942;8.404;2022-10-31T16:22:34;16.37;81.53
69387;SHT31;56575;48.942;8.404;2022-10-31T16:25:21;16.36;81.42
69387;SHT31;56575;48.942;8.404;2022-10-31T16:27:51;16.33;81.36
69387;SHT31;56575;48.942;8.404;2022-10-31T16:30:47;16.31;81.69
69387;SHT31;56575;48.942;8.404;2022-10-31T16:33:31;16.34;82.16
69387;SHT31;56575;48.942;8.404;2022-10-31T16:38:53;16.26;82.20
69387;SHT31;56575;48.942;8.404;2022-10-31T16:41:19;16.27;82.76
69387;SHT31;56575;48.942;8.404;2022-10-31T16:43:45;16.24;82.56
69387;SHT31;56575;48.942;8.404;2022-10-31T16:46:36;16.26;82.87
69387;SHT31;56575;48.942;8.404;2022-10-31T16:49:02;16.24;83.34
69387;SHT31;56575;48.942;8.404;2022-10-31T16:51:27;16.21;82.64
69387;SHT31;56575;48.942;8.404;2022-10-31T16:53:52;16.19;82.80
69387;SHT31;56575;48.942;8.404;2022-10-31T16:56:26;16.10;82.60
69387;SHT31;56575;48.942;8.404;2022-10-31T16:58:52;16.05;82.73
69387;SHT31;56575;48.942;8.404;2022-10-31T17:01:18;16.06;83.15
69387;SHT31;56575;48.942;8.404;2022-10-31T17:03:43;16.01;83.27
69387;SHT31;56575;48.942;8.404;2022-10-31T17:06:12;15.96;83.73
69387;SHT31;56575;48.942;8.404;2022-10-31T17:08:37;15.96;83.97
69387;SHT31;56575;48.942;8.404;2022-10-31T17:11:03;15.96;84.26
69387;SHT31;56575;48.942;8.404;2022-10-31T17:13:30;15.91;84.03
69387;SHT31;56575;48.942;8.404;2022-10-31T17:15:58;15.86;84.30
69387;SHT31;56575;48.942;8.404;2022-10-31T17:18:24;15.85;84.44
69387;SHT31;56575;48.942;8.404;2022-10-31T17:20:50;15.82;84.50
69387;SHT31;56575;48.942;8.404;2022-10-31T17:23:21;15.81;84.61
69387;SHT31;56575;48.942;8.404;2022-10-31T17:25:46;15.79;84.82
69387;SHT31;56575;48.942;8.404;2022-10-31T17:28:13;15.72;84.97
69387;SHT31;56575;48.942;8.404;2022-10-31T17:30:40;15.77;84.91
69387;SHT31;56575;48.942;8.404;2022-10-31T17:33:06;15.74;85.19
69387;SHT31;56575;48.942;8.404;2022-10-31T17:35:31;15.69;85.23
69387;SHT31;56575;48.942;8.404;2022-10-31T17:37:57;15.67;85.24
69387;SHT31;56575;48.942;8.404;2022-10-31T17:40:22;15.64;85.47
69387;SHT31;56575;48.942;8.404;2022-10-31T17:42:52;15.64;85.96
69387;SHT31;56575;48.942;8.404;2022-10-31T17:45:18;15.61;85.55